createdAt,value
2023-03-29T00:00:11.118Z,-2.61
2023-03-29T00:03:02.110Z,-2.68
2023-03-29T00:05:33.968Z,-2.59
2023-03-29T00:08:04.372Z,-2.48
2023-03-29T00:10:33.930Z,-2.37
2023-03-29T00:13:02.805Z,-2.55
2023-03-29T00:15:30.565Z,-2.55
2023-03-29T00:17:58.711Z,-2.72
2023-03-29T00:20:26.462Z,-2.80
2023-03-29T00:22:54.337Z,-2.75
2023-03-29T00:25:22.017Z,-2.82
2023-03-29T00:27:49.937Z,-2.75
2023-03-29T00:30:17.553Z,-2.82
2023-03-29T00:32:46.111Z,-2.66
2023-03-29T00:35:13.837Z,-2.80
2023-03-29T00:37:41.873Z,-2.79
2023-03-29T00:40:11.702Z,-2.74
2023-03-29T00:42:43.579Z,-2.82
2023-03-29T00:45:38.324Z,-2.90
2023-03-29T00:48:15.877Z,-2.85
2023-03-29T00:51:16.598Z,-2.71
2023-03-29T00:53:53.107Z,-2.78
2023-03-29T00:56:40.219Z,-2.85
2023-03-29T00:59:20.575Z,-2.84
2023-03-29T01:01:59.844Z,-2.90
2023-03-29T01:04:31.047Z,-2.79
2023-03-29T01:07:04.546Z,-2.84
2023-03-29T01:09:37.827Z,-2.87
2023-03-29T01:12:17.171Z,-3.02
2023-03-29T01:14:50.211Z,-3.04
2023-03-29T01:17:21.922Z,-2.98
2023-03-29T01:20:02.161Z,-2.97
2023-03-29T01:23:00.704Z,-3.04
2023-03-29T01:25:42.030Z,-2.84
2023-03-29T01:28:14.719Z,-2.80
2023-03-29T01:30:49.925Z,-3.11
2023-03-29T01:33:30.091Z,-3.01
2023-03-29T01:36:14.113Z,-3.10
2023-03-29T01:38:44.664Z,-3.23
2023-03-29T01:41:12.700Z,-3.25
2023-03-29T01:44:01.933Z,-3.23
2023-03-29T01:46:48.085Z,-3.23
2023-03-29T01:49:29.298Z,-3.25
2023-03-29T01:52:07.231Z,-3.27
2023-03-29T01:54:48.611Z,-3.14
2023-03-29T01:57:19.840Z,-3.26
2023-03-29T01:59:49.625Z,-3.16
2023-03-29T02:02:18.831Z,-3.16
2023-03-29T02:04:53.473Z,-3.15
2023-03-29T02:07:26.543Z,-3.18
2023-03-29T02:09:55.617Z,-3.32
2023-03-29T02:12:23.549Z,-3.28
2023-03-29T02:14:51.135Z,-3.21
2023-03-29T02:17:25.211Z,-3.31
2023-03-29T02:20:01.716Z,-3.36
2023-03-29T02:22:38.716Z,-3.32
2023-03-29T02:25:28.784Z,-3.40
2023-03-29T02:27:57.359Z,-3.37
2023-03-29T02:30:31.345Z,-3.32
2023-03-29T02:33:16.847Z,-3.38
2023-03-29T02:35:56.739Z,-3.45
2023-03-29T02:38:27.778Z,-3.43
2023-03-29T02:40:57.808Z,-3.45
2023-03-29T02:43:28.717Z,-3.52
2023-03-29T02:45:56.528Z,-3.51
2023-03-29T02:48:27.113Z,-3.46
2023-03-29T02:51:01.154Z,-3.54
2023-03-29T02:53:45.642Z,-3.56
2023-03-29T02:56:13.536Z,-3.57
2023-03-29T02:58:41.444Z,-3.69
2023-03-29T03:01:10.491Z,-3.70
2023-03-29T03:03:39.007Z,-3.62
2023-03-29T03:06:07.008Z,-3.71
2023-03-29T03:08:34.795Z,-3.79
2023-03-29T03:11:02.654Z,-3.84
2023-03-29T03:13:30.921Z,-3.89
2023-03-29T03:15:58.815Z,-3.81
2023-03-29T03:18:27.713Z,-3.78
2023-03-29T03:20:57.103Z,-3.83
2023-03-29T03:23:25.448Z,-3.87
2023-03-29T03:25:53.431Z,-3.84
2023-03-29T03:28:22.483Z,-3.83
2023-03-29T03:30:50.721Z,-3.75
2023-03-29T03:33:19.376Z,-3.83
2023-03-29T03:36:26.142Z,-3.80
2023-03-29T03:38:57.770Z,-3.97
2023-03-29T03:41:26.350Z,-3.90
2023-03-29T03:43:55.084Z,-3.89
2023-03-29T03:46:23.560Z,-3.95
2023-03-29T03:48:51.549Z,-3.66
2023-03-29T03:51:27.861Z,-3.79
2023-03-29T03:53:55.861Z,-3.89
2023-03-29T03:56:44.554Z,-3.89
2023-03-29T03:59:17.558Z,-3.97
2023-03-29T04:02:06.823Z,-3.80
2023-03-29T04:04:37.803Z,-3.96
2023-03-29T04:07:13.109Z,-3.87
2023-03-29T04:09:59.676Z,-3.87
2023-03-29T04:12:53.111Z,-3.85
2023-03-29T04:15:22.119Z,-3.95
2023-03-29T04:17:57.719Z,-3.98
2023-03-29T04:20:40.531Z,-3.97
2023-03-29T04:23:08.658Z,-3.97
2023-03-29T04:25:37.926Z,-3.91
2023-03-29T04:28:23.877Z,-3.80
2023-03-29T04:31:13.414Z,-3.76
2023-03-29T04:33:59.104Z,-3.70
2023-03-29T04:36:28.466Z,-3.62
2023-03-29T04:38:56.272Z,-3.71
2023-03-29T04:41:28.649Z,-3.66
2023-03-29T04:44:03.583Z,-3.67
2023-03-29T04:46:33.363Z,-3.56
2023-03-29T04:49:24.599Z,-3.46
2023-03-29T04:51:54.439Z,-3.36
2023-03-29T04:54:26.399Z,-3.32
2023-03-29T04:57:26.520Z,-3.23
2023-03-29T05:00:14.968Z,-3.17
2023-03-29T05:03:08.093Z,-2.83
2023-03-29T05:05:41.554Z,-2.80
2023-03-29T05:08:10.682Z,-2.71
2023-03-29T05:10:58.254Z,-2.62
2023-03-29T05:13:28.295Z,-2.56
2023-03-29T05:15:57.205Z,-2.24
2023-03-29T05:18:26.111Z,-1.42
2023-03-29T05:20:54.274Z,0.26
2023-03-29T05:23:23.762Z,1.23
2023-03-29T05:26:10.231Z,0.09
2023-03-29T05:28:40.618Z,0.13
2023-03-29T05:31:08.959Z,0.33
2023-03-29T05:33:40.663Z,3.16
2023-03-29T05:36:13.495Z,4.14
2023-03-29T05:38:46.703Z,4.45
2023-03-29T05:41:16.000Z,4.81
2023-03-29T05:44:02.754Z,4.93
2023-03-29T05:46:31.543Z,4.93
2023-03-29T05:49:03.254Z,4.90
2023-03-29T05:51:56.978Z,5.47
2023-03-29T05:54:27.214Z,6.60
2023-03-29T05:56:55.066Z,7.03
2023-03-29T05:59:24.399Z,8.05
2023-03-29T06:01:52.060Z,8.68
2023-03-29T06:04:22.320Z,9.28
2023-03-29T06:07:02.189Z,10.82
2023-03-29T06:09:32.075Z,10.01
2023-03-29T06:12:03.961Z,9.23
2023-03-29T06:14:32.669Z,8.94
2023-03-29T06:17:39.907Z,10.14
2023-03-29T06:20:11.338Z,10.52
2023-03-29T06:22:42.685Z,11.83
2023-03-29T06:25:12.597Z,10.97
2023-03-29T06:27:42.568Z,10.99
2023-03-29T06:30:12.205Z,10.12
2023-03-29T06:32:39.962Z,10.08
2023-03-29T06:35:15.746Z,9.55
2023-03-29T06:37:50.032Z,9.38
2023-03-29T06:40:31.047Z,8.13
2023-03-29T06:43:00.011Z,7.75
2023-03-29T06:45:40.675Z,7.76
2023-03-29T06:48:17.837Z,7.72
2023-03-29T06:50:47.530Z,8.00
2023-03-29T06:53:17.057Z,8.62
2023-03-29T06:55:52.538Z,8.57
2023-03-29T06:58:40.833Z,8.61
2023-03-29T07:01:28.706Z,7.87
2023-03-29T07:04:08.401Z,8.74
2023-03-29T07:07:01.590Z,9.78
2023-03-29T07:09:32.299Z,9.59
2023-03-29T07:12:24.140Z,9.52
2023-03-29T07:14:53.570Z,9.50
2023-03-29T07:17:22.846Z,9.87
2023-03-29T07:19:50.484Z,9.48
2023-03-29T07:22:42.259Z,9.58
2023-03-29T07:25:12.358Z,9.96
2023-03-29T07:27:42.205Z,10.49
2023-03-29T07:30:18.393Z,10.54
2023-03-29T07:32:46.964Z,10.12
2023-03-29T07:35:36.245Z,8.94
2023-03-29T07:38:04.203Z,9.25
2023-03-29T07:40:33.537Z,10.84
2023-03-29T07:43:20.309Z,11.54
2023-03-29T07:45:48.660Z,13.41
2023-03-29T07:48:17.814Z,14.04
2023-03-29T07:50:50.798Z,15.72
2023-03-29T07:53:23.092Z,17.30
2023-03-29T07:55:54.761Z,18.61
2023-03-29T07:58:41.380Z,19.33
2023-03-29T08:01:10.948Z,19.39
2023-03-29T08:03:58.933Z,20.67
2023-03-29T08:06:46.919Z,20.22
2023-03-29T08:09:15.301Z,20.90
2023-03-29T08:11:44.979Z,20.90
2023-03-29T08:14:28.812Z,21.20
2023-03-29T08:17:04.976Z,21.01
2023-03-29T08:19:37.120Z,21.29
2023-03-29T08:22:06.599Z,21.77
2023-03-29T08:24:53.029Z,21.87
2023-03-29T08:27:24.188Z,20.24
2023-03-29T08:29:52.120Z,20.59
2023-03-29T08:32:19.854Z,21.34
2023-03-29T08:34:48.189Z,21.28
2023-03-29T08:37:19.194Z,21.98
2023-03-29T08:39:49.501Z,22.14
2023-03-29T08:43:04.216Z,21.23
2023-03-29T08:46:05.721Z,21.21
2023-03-29T08:48:42.439Z,19.85
2023-03-29T08:51:27.508Z,20.75
2023-03-29T08:54:04.889Z,20.66
2023-03-29T08:56:47.538Z,18.99
2023-03-29T08:59:33.276Z,18.25
2023-03-29T09:02:10.093Z,19.36
2023-03-29T09:04:40.729Z,20.15
2023-03-29T09:07:44.108Z,20.83
2023-03-29T09:10:16.810Z,19.25
2023-03-29T09:12:59.861Z,19.34
2023-03-29T09:15:48.602Z,19.96
2023-03-29T09:19:04.967Z,20.28
2023-03-29T09:22:04.457Z,20.32
2023-03-29T09:24:54.127Z,19.33
2023-03-29T09:27:26.723Z,19.32
2023-03-29T09:30:31.311Z,19.57
2023-03-29T09:33:21.202Z,19.93
2023-03-29T09:36:38.682Z,20.51
2023-03-29T09:39:07.238Z,20.46
2023-03-29T09:41:43.338Z,20.88
2023-03-29T09:46:57.062Z,19.06
2023-03-29T09:49:32.916Z,18.91
2023-03-29T09:52:08.006Z,18.75
2023-03-29T09:54:35.715Z,18.13
2023-03-29T09:57:27.401Z,17.99
2023-03-29T09:59:56.077Z,17.86
2023-03-29T10:02:24.009Z,17.07
2023-03-29T10:04:55.736Z,16.26
2023-03-29T10:07:23.871Z,16.60
2023-03-29T10:09:57.671Z,16.66
2023-03-29T10:12:26.129Z,17.58
2023-03-29T10:14:54.695Z,17.26
2023-03-29T10:17:33.377Z,16.95
2023-03-29T10:20:08.124Z,16.87
2023-03-29T10:22:38.250Z,16.58
2023-03-29T10:25:14.133Z,15.43
2023-03-29T10:27:43.938Z,13.40
2023-03-29T10:30:23.928Z,11.76
2023-03-29T10:33:00.035Z,10.53
2023-03-29T10:35:44.204Z,9.75
2023-03-29T10:38:17.751Z,9.35
2023-03-29T10:40:53.855Z,8.80
2023-03-29T10:43:26.240Z,8.79
2023-03-29T10:46:06.674Z,8.51
2023-03-29T10:48:36.197Z,8.32
2023-03-29T10:51:06.037Z,8.06
2023-03-29T10:53:37.613Z,7.92
2023-03-29T10:56:17.323Z,7.77
2023-03-29T10:59:00.396Z,7.76
2023-03-29T11:01:31.747Z,7.83
2023-03-29T11:04:08.052Z,7.76
2023-03-29T11:06:53.393Z,7.88
2023-03-29T11:09:34.405Z,7.59
2023-03-29T11:12:27.957Z,7.24
2023-03-29T11:15:21.292Z,7.04
2023-03-29T11:18:25.446Z,6.87
2023-03-29T11:21:11.699Z,7.07
2023-03-29T11:24:10.889Z,7.17
2023-03-29T11:26:41.964Z,7.33
2023-03-29T11:30:00.602Z,7.48
2023-03-29T11:32:54.698Z,7.57
2023-03-29T11:35:57.190Z,7.50
2023-03-29T11:38:51.780Z,7.30
2023-03-29T11:41:25.696Z,7.31
2023-03-29T11:44:14.826Z,7.52
2023-03-29T11:46:50.731Z,7.75
2023-03-29T11:49:28.300Z,7.73
2023-03-29T11:52:14.728Z,7.83
2023-03-29T11:55:13.934Z,7.70
2023-03-29T11:57:49.991Z,7.83
2023-03-29T12:00:40.457Z,8.04
2023-03-29T12:03:15.585Z,7.78
2023-03-29T12:05:57.039Z,7.48
2023-03-29T12:08:32.964Z,7.39
2023-03-29T12:11:03.872Z,7.54
2023-03-29T12:13:54.692Z,7.62
2023-03-29T12:16:45.680Z,7.82
2023-03-29T12:19:31.615Z,7.83
2023-03-29T12:22:01.322Z,7.94
2023-03-29T12:24:35.568Z,8.04
2023-03-29T12:27:12.439Z,7.86
2023-03-29T12:30:19.034Z,7.81
2023-03-29T12:33:15.912Z,7.93
2023-03-29T12:36:33.186Z,8.08
2023-03-29T12:39:22.989Z,8.17
2023-03-29T12:42:21.681Z,8.22
2023-03-29T12:45:28.346Z,8.17
2023-03-29T12:47:56.419Z,8.17
2023-03-29T12:50:34.034Z,8.16
2023-03-29T12:53:18.999Z,8.43
2023-03-29T12:55:56.063Z,8.37
2023-03-29T12:58:38.948Z,8.47
2023-03-29T13:01:48.089Z,8.47
2023-03-29T13:04:17.570Z,8.48
2023-03-29T13:06:48.155Z,8.42
2023-03-29T13:09:30.062Z,8.51
2023-03-29T13:12:07.905Z,8.39
2023-03-29T13:14:42.652Z,8.42
2023-03-29T13:17:26.236Z,8.55
2023-03-29T13:20:33.024Z,8.56
2023-03-29T13:23:20.822Z,8.26
2023-03-29T13:25:57.258Z,8.24
2023-03-29T13:28:31.080Z,8.17
2023-03-29T13:31:01.838Z,8.31
2023-03-29T13:33:48.909Z,8.26
2023-03-29T13:36:52.257Z,8.28
2023-03-29T13:39:36.665Z,8.31
2023-03-29T13:42:26.480Z,7.99
2023-03-29T13:45:16.836Z,7.96
2023-03-29T13:47:54.998Z,7.90
2023-03-29T13:50:51.666Z,7.77
2023-03-29T13:53:43.399Z,7.97
2023-03-29T13:56:17.837Z,8.11
2023-03-29T13:58:49.933Z,8.21
2023-03-29T14:01:23.218Z,8.46
2023-03-29T14:03:52.703Z,8.20
2023-03-29T14:06:42.418Z,7.97
2023-03-29T14:09:14.365Z,8.12
2023-03-29T14:11:46.778Z,8.25
2023-03-29T14:14:14.872Z,8.49
2023-03-29T14:16:42.943Z,8.36
2023-03-29T14:19:19.221Z,8.19
2023-03-29T14:21:49.199Z,8.14
2023-03-29T14:24:25.935Z,8.19
2023-03-29T14:26:54.924Z,8.04
2023-03-29T14:29:25.371Z,8.10
2023-03-29T14:31:54.102Z,8.20
2023-03-29T14:34:23.678Z,8.18
2023-03-29T14:36:54.084Z,8.17
2023-03-29T14:39:23.546Z,7.97
2023-03-29T14:41:54.417Z,7.93
2023-03-29T14:44:25.078Z,8.07
2023-03-29T14:46:53.484Z,8.07
2023-03-29T14:49:23.182Z,8.16
2023-03-29T14:51:52.351Z,8.12
2023-03-29T14:54:34.290Z,8.04
2023-03-29T14:57:08.235Z,7.99
2023-03-29T14:59:37.428Z,8.12
2023-03-29T15:02:21.863Z,8.07
2023-03-29T15:04:56.808Z,7.96
2023-03-29T15:07:27.245Z,8.06
2023-03-29T15:09:56.927Z,7.99
2023-03-29T15:12:25.385Z,7.90
2023-03-29T15:14:53.347Z,7.98
2023-03-29T15:17:39.178Z,7.88
2023-03-29T15:20:24.203Z,7.90
2023-03-29T15:22:58.325Z,7.81
2023-03-29T15:25:46.119Z,7.78
2023-03-29T15:28:28.382Z,7.67
2023-03-29T15:31:09.907Z,7.52
2023-03-29T15:33:40.032Z,7.47
2023-03-29T15:36:09.704Z,7.34
2023-03-29T15:41:10.630Z,7.05
2023-03-29T15:43:38.831Z,6.89
2023-03-29T15:46:06.683Z,6.76
2023-03-29T15:48:34.825Z,6.75
2023-03-29T15:51:06.109Z,6.68
2023-03-29T15:53:35.810Z,6.79
2023-03-29T15:56:07.744Z,6.81
2023-03-29T15:58:37.087Z,6.82
2023-03-29T16:01:34.860Z,7.32
2023-03-29T16:04:06.951Z,7.40
2023-03-29T16:06:36.095Z,7.53
2023-03-29T16:09:06.275Z,7.49
2023-03-29T16:11:34.342Z,7.28
2023-03-29T16:14:02.327Z,7.33
2023-03-29T16:16:30.050Z,7.23
2023-03-29T16:18:57.975Z,7.18
2023-03-29T16:21:26.233Z,7.07
2023-03-29T16:23:54.092Z,7.01
2023-03-29T16:26:22.266Z,6.94
2023-03-29T16:28:50.152Z,6.81
2023-03-29T16:31:17.792Z,6.65
2023-03-29T16:33:45.733Z,6.58
2023-03-29T16:36:13.839Z,6.34
2023-03-29T16:38:42.015Z,6.16
2023-03-29T16:41:16.976Z,5.98
2023-03-29T16:43:44.993Z,5.93
2023-03-29T16:46:12.927Z,5.65
2023-03-29T16:48:40.940Z,5.58
2023-03-29T16:51:09.838Z,5.47
2023-03-29T16:53:38.732Z,5.31
2023-03-29T16:56:07.855Z,5.17
2023-03-29T16:58:36.243Z,5.03
2023-03-29T17:01:15.997Z,4.98
2023-03-29T17:03:44.366Z,4.86
2023-03-29T17:06:12.296Z,4.72
2023-03-29T17:08:42.422Z,4.61
2023-03-29T17:11:11.474Z,4.62
2023-03-29T17:13:40.285Z,4.54
2023-03-29T17:16:08.394Z,4.45
2023-03-29T17:18:36.678Z,4.32
2023-03-29T17:21:04.706Z,4.26
2023-03-29T17:23:32.651Z,4.18
2023-03-29T17:26:00.307Z,4.09
2023-03-29T17:28:28.434Z,4.00
2023-03-29T17:30:56.488Z,3.94
2023-03-29T17:33:26.126Z,3.87
2023-03-29T17:35:53.949Z,3.73
2023-03-29T17:38:21.866Z,3.67
2023-03-29T17:40:53.620Z,3.57
2023-03-29T17:43:22.146Z,3.40
2023-03-29T17:45:53.913Z,3.23
2023-03-29T17:48:23.335Z,3.06
2023-03-29T17:50:51.439Z,2.96
2023-03-29T17:53:19.565Z,2.94
2023-03-29T17:55:47.285Z,2.81
2023-03-29T17:58:15.338Z,2.64
2023-03-29T18:00:43.382Z,2.62
2023-03-29T18:03:11.334Z,2.46
2023-03-29T18:05:38.920Z,2.36
2023-03-29T18:08:08.655Z,2.46
2023-03-29T18:10:36.875Z,2.53
2023-03-29T18:13:04.984Z,2.54
2023-03-29T18:15:32.612Z,2.59
2023-03-29T18:18:00.764Z,2.58
2023-03-29T18:20:28.474Z,2.58
2023-03-29T18:22:56.864Z,2.64
2023-03-29T18:25:24.491Z,2.62
2023-03-29T18:27:52.455Z,2.63
2023-03-29T18:30:20.397Z,2.63
2023-03-29T18:32:48.281Z,2.67
2023-03-29T18:35:16.468Z,2.67
2023-03-29T18:37:44.399Z,2.76
2023-03-29T18:40:12.283Z,2.79
2023-03-29T18:42:40.481Z,2.90
2023-03-29T18:45:09.371Z,2.86
2023-03-29T18:47:37.384Z,2.90
2023-03-29T18:50:05.597Z,2.86
2023-03-29T18:52:33.551Z,2.86
2023-03-29T18:55:01.145Z,3.00
2023-03-29T18:57:29.134Z,3.00
2023-03-29T18:59:56.897Z,3.06
2023-03-29T19:02:25.110Z,3.05
2023-03-29T19:04:52.864Z,3.11
2023-03-29T19:07:22.028Z,3.07
2023-03-29T19:09:49.505Z,3.14
2023-03-29T19:12:17.393Z,3.13
2023-03-29T19:14:45.110Z,3.20
2023-03-29T19:17:13.073Z,3.25
2023-03-29T19:19:40.765Z,3.31
2023-03-29T19:22:08.592Z,3.38
2023-03-29T19:24:36.252Z,3.47
2023-03-29T19:27:04.327Z,3.55
2023-03-29T19:29:32.322Z,3.73
2023-03-29T19:32:00.444Z,3.73
2023-03-29T19:34:29.596Z,3.81
2023-03-29T19:36:58.491Z,3.76
2023-03-29T19:39:29.334Z,3.84
2023-03-29T19:41:57.270Z,4.01
2023-03-29T19:44:24.949Z,3.94
2023-03-29T19:46:52.887Z,3.96
2023-03-29T19:49:20.478Z,4.03
2023-03-29T19:51:48.450Z,4.11
2023-03-29T19:54:17.296Z,4.05
2023-03-29T19:56:45.441Z,4.06
2023-03-29T19:59:17.663Z,4.05
2023-03-29T20:01:51.542Z,4.04
2023-03-29T20:04:20.882Z,4.15
2023-03-29T20:06:49.265Z,4.17
2023-03-29T20:09:16.869Z,4.32
2023-03-29T20:11:46.818Z,4.40
2023-03-29T20:14:15.020Z,4.27
2023-03-29T20:16:44.000Z,4.14
2023-03-29T20:19:14.087Z,4.20
2023-03-29T20:21:42.158Z,4.04
2023-03-29T20:24:10.892Z,4.24
2023-03-29T20:26:38.714Z,4.10
2023-03-29T20:29:06.482Z,4.13
2023-03-29T20:31:34.487Z,4.15
2023-03-29T20:34:02.125Z,4.19
2023-03-29T20:36:30.624Z,4.11
2023-03-29T20:38:59.318Z,4.10
2023-03-29T20:41:27.442Z,3.97
2023-03-29T20:43:58.577Z,4.04
2023-03-29T20:46:34.945Z,3.95
2023-03-29T20:49:08.936Z,4.01
2023-03-29T20:51:38.640Z,3.88
2023-03-29T20:54:07.591Z,3.80
2023-03-29T20:56:39.031Z,3.79
2023-03-29T20:59:10.666Z,3.60
2023-03-29T21:01:41.000Z,3.61
2023-03-29T21:04:10.894Z,3.46
2023-03-29T21:06:41.687Z,3.34
2023-03-29T21:09:09.368Z,3.33
2023-03-29T21:11:37.413Z,3.41
2023-03-29T21:14:05.149Z,3.34
2023-03-29T21:16:33.035Z,3.14
2023-03-29T21:19:00.813Z,3.25
2023-03-29T21:21:29.682Z,3.17
2023-03-29T21:23:57.316Z,3.06
2023-03-29T21:26:26.065Z,2.85
2023-03-29T21:28:53.712Z,2.74
2023-03-29T21:31:21.731Z,2.68
2023-03-29T21:33:49.332Z,2.51
2023-03-29T21:36:17.384Z,2.51
2023-03-29T21:38:45.426Z,2.45
2023-03-29T21:41:13.743Z,2.31
2023-03-29T21:43:41.629Z,2.34
2023-03-29T21:46:10.225Z,2.47
2023-03-29T21:48:38.005Z,2.48
2023-03-29T21:51:06.612Z,2.47
2023-03-29T21:53:34.778Z,2.58
2023-03-29T21:56:02.921Z,2.70
2023-03-29T21:58:30.785Z,2.85
2023-03-29T22:00:58.813Z,2.83
2023-03-29T22:03:26.469Z,2.85
2023-03-29T22:06:08.559Z,2.95
2023-03-29T22:08:38.887Z,3.18
2023-03-29T22:11:14.364Z,3.25
2023-03-29T22:13:43.552Z,3.16
2023-03-29T22:16:18.470Z,3.33
2023-03-29T22:18:49.332Z,3.38
2023-03-29T22:21:20.209Z,3.57
2023-03-29T22:23:49.867Z,3.47
2023-03-29T22:26:19.645Z,3.50
2023-03-29T22:28:47.274Z,3.41
2023-03-29T22:31:18.526Z,3.43
2023-03-29T22:33:46.699Z,3.51
2023-03-29T22:36:16.394Z,3.43
2023-03-29T22:38:45.387Z,3.35
2023-03-29T22:41:14.472Z,3.36
2023-03-29T22:43:42.146Z,3.52
2023-03-29T22:46:12.926Z,3.40
2023-03-29T22:48:41.313Z,3.31
2023-03-29T22:51:09.069Z,3.40
2023-03-29T22:53:37.040Z,3.33
2023-03-29T22:56:07.018Z,3.32
2023-03-29T22:58:35.209Z,3.42
2023-03-29T23:01:03.607Z,3.45
2023-03-29T23:03:31.563Z,3.49
2023-03-29T23:06:03.476Z,3.60
2023-03-29T23:08:32.742Z,3.59
2023-03-29T23:11:01.442Z,3.44
2023-03-29T23:13:29.636Z,3.39
2023-03-29T23:16:00.239Z,3.29
2023-03-29T23:18:30.256Z,3.28
2023-03-29T23:21:00.232Z,3.21
2023-03-29T23:23:29.076Z,3.37
2023-03-29T23:25:57.200Z,3.43
2023-03-29T23:28:27.590Z,3.50
2023-03-29T23:31:03.850Z,3.48
2023-03-29T23:33:35.203Z,3.44
2023-03-29T23:36:06.255Z,3.57
2023-03-29T23:38:36.593Z,3.42
2023-03-29T23:41:08.533Z,3.61
2023-03-29T23:43:40.503Z,3.58
2023-03-29T23:46:12.026Z,3.50
2023-03-29T23:48:40.059Z,3.43
2023-03-29T23:51:08.175Z,3.53
2023-03-29T23:53:36.677Z,3.50
2023-03-29T23:56:06.250Z,3.42
2023-03-29T23:58:37.314Z,3.44
